sensor_id;sensor_type;location;lat;lon;timestamp;pressure;altitude;pressure_sealevel;temperature;humidity
27729;BME280;15126;42.186;24.340;2024-02-26T00:01:41;99068.47;;;8.96;80.22
27729;BME280;15126;42.186;24.340;2024-02-26T00:04:09;99029.91;;;8.98;79.52
27729;BME280;15126;42.186;24.340;2024-02-26T00:06:35;98990.72;;;8.94;80.84
27729;BME280;15126;42.186;24.340;2024-02-26T00:09:00;99073.31;;;8.85;81.39
27729;BME280;15126;42.186;24.340;2024-02-26T00:11:27;99068.00;;;8.88;82.41
27729;BME280;15126;42.186;24.340;2024-02-26T00:13:53;99035.06;;;9.13;83.09
27729;BME280;15126;42.186;24.340;2024-02-26T00:16:18;99069.41;;;9.28;83.90
27729;BME280;15126;42.186;24.340;2024-02-26T00:18:44;99072.03;;;9.44;82.51
27729;BME280;15126;42.186;24.340;2024-02-26T00:21:09;99064.75;;;9.52;82.29
27729;BME280;15126;42.186;24.340;2024-02-26T00:23:34;99041.84;;;9.65;81.94
27729;BME280;15126;42.186;24.340;2024-02-26T00:26:00;99039.66;;;9.73;81.35
27729;BME280;15126;42.186;24.340;2024-02-26T00:28:25;99018.56;;;9.84;81.43
27729;BME280;15126;42.186;24.340;2024-02-26T00:30:52;98994.59;;;9.84;81.69
27729;BME280;15126;42.186;24.340;2024-02-26T00:33:21;98984.47;;;9.96;81.42
27729;BME280;15126;42.186;24.340;2024-02-26T00:35:47;98992.03;;;9.99;81.60
27729;BME280;15126;42.186;24.340;2024-02-26T00:38:13;98997.38;;;10.11;80.67
27729;BME280;15126;42.186;24.340;2024-02-26T00:40:39;99000.28;;;10.21;79.32
27729;BME280;15126;42.186;24.340;2024-02-26T00:43:06;99005.69;;;10.32;79.36
27729;BME280;15126;42.186;24.340;2024-02-26T00:45:31;99012.69;;;10.28;79.95
27729;BME280;15126;42.186;24.340;2024-02-26T00:47:57;99015.97;;;10.32;79.79
27729;BME280;15126;42.186;24.340;2024-02-26T00:50:23;99020.41;;;10.28;79.63
27729;BME280;15126;42.186;24.340;2024-02-26T00:52:48;99018.47;;;10.33;79.39
27729;BME280;15126;42.186;24.340;2024-02-26T00:55:13;99008.41;;;10.45;78.46
27729;BME280;15126;42.186;24.340;2024-02-26T00:57:39;99008.41;;;10.45;78.90
27729;BME280;15126;42.186;24.340;2024-02-26T01:00:06;99005.91;;;10.27;79.50
27729;BME280;15126;42.186;24.340;2024-02-26T01:02:34;99030.75;;;10.12;79.82
27729;BME280;15126;42.186;24.340;2024-02-26T01:04:59;99030.16;;;10.07;79.97
27729;BME280;15126;42.186;24.340;2024-02-26T01:07:25;99023.75;;;9.98;79.96
27729;BME280;15126;42.186;24.340;2024-02-26T01:09:50;99019.53;;;10.13;79.05
27729;BME280;15126;42.186;24.340;2024-02-26T01:12:16;99008.09;;;10.19;78.56
27729;BME280;15126;42.186;24.340;2024-02-26T01:14:41;99004.09;;;10.13;78.42
27729;BME280;15126;42.186;24.340;2024-02-26T01:17:06;99012.56;;;10.15;77.95
27729;BME280;15126;42.186;24.340;2024-02-26T01:19:32;99006.25;;;10.21;78.10
27729;BME280;15126;42.186;24.340;2024-02-26T01:21:57;99014.22;;;10.16;78.41
27729;BME280;15126;42.186;24.340;2024-02-26T01:24:22;99011.03;;;9.97;79.35
27729;BME280;15126;42.186;24.340;2024-02-26T01:26:48;99002.78;;;10.06;78.58
27729;BME280;15126;42.186;24.340;2024-02-26T01:29:13;98993.06;;;10.11;78.49
27729;BME280;15126;42.186;24.340;2024-02-26T01:31:38;98986.78;;;10.17;78.21
27729;BME280;15126;42.186;24.340;2024-02-26T01:34:04;98989.06;;;10.22;78.13
27729;BME280;15126;42.186;24.340;2024-02-26T01:36:29;98984.41;;;10.28;77.83
27729;BME280;15126;42.186;24.340;2024-02-26T01:38:55;98989.75;;;10.25;77.99
27729;BME280;15126;42.186;24.340;2024-02-26T01:41:20;98997.63;;;10.22;77.91
27729;BME280;15126;42.186;24.340;2024-02-26T01:43:45;98997.78;;;10.19;78.19
27729;BME280;15126;42.186;24.340;2024-02-26T01:46:14;98994.81;;;10.11;78.45
27729;BME280;15126;42.186;24.340;2024-02-26T01:48:43;98991.50;;;10.09;78.63
27729;BME280;15126;42.186;24.340;2024-02-26T01:51:12;98985.13;;;10.16;77.88
27729;BME280;15126;42.186;24.340;2024-02-26T01:53:38;98977.97;;;10.21;77.87
27729;BME280;15126;42.186;24.340;2024-02-26T01:56:04;98975.13;;;10.26;77.46
27729;BME280;15126;42.186;24.340;2024-02-26T01:58:29;98975.06;;;10.27;77.26
27729;BME280;15126;42.186;24.340;2024-02-26T02:00:56;98969.09;;;10.27;77.59
27729;BME280;15126;42.186;24.340;2024-02-26T02:03:22;98968.59;;;10.20;77.62
27729;BME280;15126;42.186;24.340;2024-02-26T02:05:48;98970.63;;;9.99;78.52
27729;BME280;15126;42.186;24.340;2024-02-26T02:08:13;98988.38;;;10.04;78.42
27729;BME280;15126;42.186;24.340;2024-02-26T02:10:41;98974.72;;;10.17;78.01
27729;BME280;15126;42.186;24.340;2024-02-26T02:13:07;98965.66;;;10.26;77.55
27729;BME280;15126;42.186;24.340;2024-02-26T02:15:32;98967.09;;;10.32;77.16
27729;BME280;15126;42.186;24.340;2024-02-26T02:17:58;98972.16;;;10.33;76.91
27729;BME280;15126;42.186;24.340;2024-02-26T02:20:32;98969.50;;;10.35;77.25
27729;BME280;15126;42.186;24.340;2024-02-26T02:22:58;98967.84;;;10.34;77.12
27729;BME280;15126;42.186;24.340;2024-02-26T02:25:23;98965.28;;;10.34;76.49
27729;BME280;15126;42.186;24.340;2024-02-26T02:27:49;98960.88;;;10.36;76.94
27729;BME280;15126;42.186;24.340;2024-02-26T02:30:15;98959.13;;;10.36;76.10
27729;BME280;15126;42.186;24.340;2024-02-26T02:32:42;98961.88;;;10.33;76.27
27729;BME280;15126;42.186;24.340;2024-02-26T02:35:07;98961.88;;;10.33;76.73
27729;BME280;15126;42.186;24.340;2024-02-26T02:37:33;98967.59;;;10.38;76.52
27729;BME280;15126;42.186;24.340;2024-02-26T02:39:59;98965.34;;;10.32;76.92
27729;BME280;15126;42.186;24.340;2024-02-26T02:42:26;98971.25;;;10.34;76.65
27729;BME280;15126;42.186;24.340;2024-02-26T02:44:51;98975.56;;;10.34;76.93
27729;BME280;15126;42.186;24.340;2024-02-26T02:47:17;98974.75;;;10.33;76.61
27729;BME280;15126;42.186;24.340;2024-02-26T02:49:42;98972.16;;;10.33;76.52
27729;BME280;15126;42.186;24.340;2024-02-26T02:52:07;98971.34;;;10.33;76.56
27729;BME280;15126;42.186;24.340;2024-02-26T02:54:33;98983.47;;;10.31;76.61
27729;BME280;15126;42.186;24.340;2024-02-26T02:56:58;98982.78;;;10.27;77.00
27729;BME280;15126;42.186;24.340;2024-02-26T02:59:24;98987.16;;;10.25;77.26
27729;BME280;15126;42.186;24.340;2024-02-26T03:01:49;98986.50;;;10.22;77.01
27729;BME280;15126;42.186;24.340;2024-02-26T03:04:14;98988.53;;;10.16;77.53
27729;BME280;15126;42.186;24.340;2024-02-26T03:06:40;98990.50;;;10.11;77.09
27729;BME280;15126;42.186;24.340;2024-02-26T03:09:05;98984.63;;;10.09;77.44
27729;BME280;15126;42.186;24.340;2024-02-26T03:11:31;98989.69;;;10.11;77.21
27729;BME280;15126;42.186;24.340;2024-02-26T03:13:56;99000.97;;;10.08;77.13
27729;BME280;15126;42.186;24.340;2024-02-26T03:16:22;99002.03;;;10.04;77.78
27729;BME280;15126;42.186;24.340;2024-02-26T03:18:47;99000.00;;;9.95;78.27
27729;BME280;15126;42.186;24.340;2024-02-26T03:21:13;99002.41;;;9.82;78.96
27729;BME280;15126;42.186;24.340;2024-02-26T03:23:38;98991.28;;;9.66;79.31
27729;BME280;15126;42.186;24.340;2024-02-26T03:26:04;98994.34;;;9.72;79.15
27729;BME280;15126;42.186;24.340;2024-02-26T03:28:29;98988.03;;;9.62;79.83
27729;BME280;15126;42.186;24.340;2024-02-26T03:30:56;98994.00;;;9.63;80.52
27729;BME280;15126;42.186;24.340;2024-02-26T03:33:21;98999.06;;;9.64;80.07
27729;BME280;15126;42.186;24.340;2024-02-26T03:35:46;98992.84;;;9.68;79.96
27729;BME280;15126;42.186;24.340;2024-02-26T03:38:12;98996.84;;;9.74;79.35
27729;BME280;15126;42.186;24.340;2024-02-26T03:40:38;98991.59;;;9.75;78.78
27729;BME280;15126;42.186;24.340;2024-02-26T03:43:03;98986.31;;;9.78;78.94
27729;BME280;15126;42.186;24.340;2024-02-26T03:45:31;98990.63;;;9.78;78.88
27729;BME280;15126;42.186;24.340;2024-02-26T03:47:56;98987.47;;;9.73;78.87
27729;BME280;15126;42.186;24.340;2024-02-26T03:50:22;98987.63;;;9.70;78.90
27729;BME280;15126;42.186;24.340;2024-02-26T03:52:48;98985.72;;;9.73;78.36
27729;BME280;15126;42.186;24.340;2024-02-26T03:55:13;98978.94;;;9.72;78.82
27729;BME280;15126;42.186;24.340;2024-02-26T03:57:38;98986.72;;;9.71;78.95
27729;BME280;15126;42.186;24.340;2024-02-26T04:00:04;98994.34;;;9.72;78.41
27729;BME280;15126;42.186;24.340;2024-02-26T04:02:29;99002.88;;;9.73;79.11
27729;BME280;15126;42.186;24.340;2024-02-26T04:04:55;99009.59;;;9.75;78.98
27729;BME280;15126;42.186;24.340;2024-02-26T04:07:20;99004.88;;;9.68;80.20
27729;BME280;15126;42.186;24.340;2024-02-26T04:09:45;99004.94;;;9.66;79.81
27729;BME280;15126;42.186;24.340;2024-02-26T04:12:11;98995.75;;;9.62;80.20
27729;BME280;15126;42.186;24.340;2024-02-26T04:14:36;98994.50;;;9.69;80.08
27729;BME280;15126;42.186;24.340;2024-02-26T04:17:02;98999.41;;;9.74;79.46
27729;BME280;15126;42.186;24.340;2024-02-26T04:19:28;98992.59;;;9.73;79.16
27729;BME280;15126;42.186;24.340;2024-02-26T04:21:54;98993.34;;;9.75;79.45
27729;BME280;15126;42.186;24.340;2024-02-26T04:24:19;98986.13;;;9.66;79.94
27729;BME280;15126;42.186;24.340;2024-02-26T04:26:45;98990.19;;;9.70;79.66
27729;BME280;15126;42.186;24.340;2024-02-26T04:29:10;98992.34;;;9.77;79.63
27729;BME280;15126;42.186;24.340;2024-02-26T04:31:37;98995.03;;;9.76;79.47
27729;BME280;15126;42.186;24.340;2024-02-26T04:34:02;98998.41;;;9.76;79.36
27729;BME280;15126;42.186;24.340;2024-02-26T04:36:27;98994.00;;;9.78;79.28
27729;BME280;15126;42.186;24.340;2024-02-26T04:38:53;98994.16;;;9.75;79.52
27729;BME280;15126;42.186;24.340;2024-02-26T04:41:23;98990.94;;;9.72;79.35
27729;BME280;15126;42.186;24.340;2024-02-26T04:43:52;99002.72;;;9.76;79.19
27729;BME280;15126;42.186;24.340;2024-02-26T04:46:18;98997.66;;;9.74;78.82
27729;BME280;15126;42.186;24.340;2024-02-26T04:48:43;99010.09;;;9.82;78.80
27729;BME280;15126;42.186;24.340;2024-02-26T04:51:10;98994.44;;;9.87;78.77
27729;BME280;15126;42.186;24.340;2024-02-26T04:53:36;98981.66;;;9.85;78.72
27729;BME280;15126;42.186;24.340;2024-02-26T04:56:01;98976.34;;;9.88;78.82
27729;BME280;15126;42.186;24.340;2024-02-26T04:58:30;98980.09;;;9.83;78.48
27729;BME280;15126;42.186;24.340;2024-02-26T05:00:56;98975.09;;;9.79;79.24
27729;BME280;15126;42.186;24.340;2024-02-26T05:03:21;98976.84;;;9.79;78.49
27729;BME280;15126;42.186;24.340;2024-02-26T05:05:46;98979.31;;;9.65;78.50
27729;BME280;15126;42.186;24.340;2024-02-26T05:08:15;98982.41;;;9.55;78.98
27729;BME280;15126;42.186;24.340;2024-02-26T05:10:45;98995.50;;;9.51;79.20
27729;BME280;15126;42.186;24.340;2024-02-26T05:13:10;99002.03;;;9.56;79.00
27729;BME280;15126;42.186;24.340;2024-02-26T05:15:36;99006.16;;;9.43;79.35
27729;BME280;15126;42.186;24.340;2024-02-26T05:18:10;98995.88;;;9.43;79.44
27729;BME280;15126;42.186;24.340;2024-02-26T05:20:35;99019.59;;;9.48;79.33
27729;BME280;15126;42.186;24.340;2024-02-26T05:23:03;99042.28;;;9.40;79.86
27729;BME280;15126;42.186;24.340;2024-02-26T05:25:31;99031.84;;;9.43;79.12
27729;BME280;15126;42.186;24.340;2024-02-26T05:27:56;99011.91;;;9.48;78.76
27729;BME280;15126;42.186;24.340;2024-02-26T05:30:22;99014.47;;;9.48;79.01
27729;BME280;15126;42.186;24.340;2024-02-26T05:32:47;99011.72;;;9.51;79.60
27729;BME280;15126;42.186;24.340;2024-02-26T05:35:13;99009.97;;;9.52;78.47
27729;BME280;15126;42.186;24.340;2024-02-26T05:37:40;99032.22;;;9.53;79.10
27729;BME280;15126;42.186;24.340;2024-02-26T05:40:05;99047.50;;;9.54;78.83
27729;BME280;15126;42.186;24.340;2024-02-26T05:42:31;99039.06;;;9.52;78.54
27729;BME280;15126;42.186;24.340;2024-02-26T05:44:56;99047.75;;;9.50;78.74
27729;BME280;15126;42.186;24.340;2024-02-26T05:47:22;99039.06;;;9.52;78.35
27729;BME280;15126;42.186;24.340;2024-02-26T05:49:47;99042.22;;;9.57;78.78
27729;BME280;15126;42.186;24.340;2024-02-26T05:52:14;99046.56;;;9.57;78.35
27729;BME280;15126;42.186;24.340;2024-02-26T05:54:39;99044.63;;;9.61;78.76
27729;BME280;15126;42.186;24.340;2024-02-26T05:57:04;99036.59;;;9.67;77.97
27729;BME280;15126;42.186;24.340;2024-02-26T05:59:30;99042.59;;;9.67;77.85
27729;BME280;15126;42.186;24.340;2024-02-26T06:01:58;99048.31;;;9.72;78.17
27729;BME280;15126;42.186;24.340;2024-02-26T06:04:24;99054.94;;;9.76;77.75
27729;BME280;15126;42.186;24.340;2024-02-26T06:06:49;99053.25;;;9.75;77.83
27729;BME280;15126;42.186;24.340;2024-02-26T06:09:14;99061.25;;;9.87;77.33
27729;BME280;15126;42.186;24.340;2024-02-26T06:11:42;99070.47;;;9.91;77.60
27729;BME280;15126;42.186;24.340;2024-02-26T06:14:10;99050.38;;;9.82;77.78
27729;BME280;15126;42.186;24.340;2024-02-26T06:16:38;99055.53;;;9.97;77.37
27729;BME280;15126;42.186;24.340;2024-02-26T06:19:03;99074.34;;;9.98;77.08
27729;BME280;15126;42.186;24.340;2024-02-26T06:21:29;99068.06;;;10.04;76.82
27729;BME280;15126;42.186;24.340;2024-02-26T06:23:54;99071.38;;;10.06;76.71
27729;BME280;15126;42.186;24.340;2024-02-26T06:26:20;99074.59;;;9.93;76.21
27729;BME280;15126;42.186;24.340;2024-02-26T06:28:47;99079.50;;;9.82;76.58
27729;BME280;15126;42.186;24.340;2024-02-26T06:31:13;99077.25;;;9.76;76.84
27729;BME280;15126;42.186;24.340;2024-02-26T06:33:38;99074.38;;;9.65;77.48
27729;BME280;15126;42.186;24.340;2024-02-26T06:36:03;99076.94;;;9.49;78.14
27729;BME280;15126;42.186;24.340;2024-02-26T06:38:29;99091.59;;;9.47;78.31
27729;BME280;15126;42.186;24.340;2024-02-26T06:40:55;99091.72;;;9.61;78.57
27729;BME280;15126;42.186;24.340;2024-02-26T06:43:20;99100.44;;;9.74;77.55
27729;BME280;15126;42.186;24.340;2024-02-26T06:45:46;99101.44;;;9.72;77.07
27729;BME280;15126;42.186;24.340;2024-02-26T06:48:11;99095.31;;;9.74;77.32
27729;BME280;15126;42.186;24.340;2024-02-26T06:50:37;99101.47;;;9.88;76.75
27729;BME280;15126;42.186;24.340;2024-02-26T06:53:02;99096.00;;;9.94;77.28
27729;BME280;15126;42.186;24.340;2024-02-26T06:55:28;99096.34;;;10.04;77.03
27729;BME280;15126;42.186;24.340;2024-02-26T06:57:53;99091.09;;;10.05;76.33
27729;BME280;15126;42.186;24.340;2024-02-26T07:00:18;99091.13;;;10.21;76.10
27729;BME280;15126;42.186;24.340;2024-02-26T07:02:44;99087.16;;;10.31;75.93
27729;BME280;15126;42.186;24.340;2024-02-26T07:05:09;99091.13;;;10.37;75.31
27729;BME280;15126;42.186;24.340;2024-02-26T07:07:35;99085.66;;;10.27;75.79
27729;BME280;15126;42.186;24.340;2024-02-26T07:10:01;99100.56;;;10.05;76.49
27729;BME280;15126;42.186;24.340;2024-02-26T07:12:29;99100.22;;;10.11;77.54
27729;BME280;15126;42.186;24.340;2024-02-26T07:14:55;99094.50;;;10.22;77.00
27729;BME280;15126;42.186;24.340;2024-02-26T07:17:21;99090.56;;;10.32;76.51
27729;BME280;15126;42.186;24.340;2024-02-26T07:19:46;99095.19;;;10.41;76.14
27729;BME280;15126;42.186;24.340;2024-02-26T07:22:11;99093.69;;;10.53;76.79
27729;BME280;15126;42.186;24.340;2024-02-26T07:24:37;99099.41;;;10.58;76.31
27729;BME280;15126;42.186;24.340;2024-02-26T07:27:05;99097.16;;;10.68;75.93
27729;BME280;15126;42.186;24.340;2024-02-26T07:29:31;99099.00;;;10.96;75.11
27729;BME280;15126;42.186;24.340;2024-02-26T07:31:57;99092.88;;;11.13;74.82
27729;BME280;15126;42.186;24.340;2024-02-26T07:34:25;99093.50;;;11.02;74.20
27729;BME280;15126;42.186;24.340;2024-02-26T07:36:57;99088.19;;;11.05;75.38
27729;BME280;15126;42.186;24.340;2024-02-26T07:39:23;99091.25;;;11.26;73.20
27729;BME280;15126;42.186;24.340;2024-02-26T07:41:50;99094.38;;;11.31;73.69
27729;BME280;15126;42.186;24.340;2024-02-26T07:44:17;99089.63;;;11.39;72.44
27729;BME280;15126;42.186;24.340;2024-02-26T07:46:43;99086.94;;;11.55;73.36
27729;BME280;15126;42.186;24.340;2024-02-26T07:49:14;99089.34;;;11.73;72.47
27729;BME280;15126;42.186;24.340;2024-02-26T07:51:42;99093.84;;;11.84;71.58
27729;BME280;15126;42.186;24.340;2024-02-26T07:54:07;99099.56;;;11.89;71.02
27729;BME280;15126;42.186;24.340;2024-02-26T07:56:33;99103.53;;;11.94;71.31
27729;BME280;15126;42.186;24.340;2024-02-26T07:58:58;99084.91;;;12.04;72.27
27729;BME280;15126;42.186;24.340;2024-02-26T08:01:24;99099.56;;;12.03;71.70
27729;BME280;15126;42.186;24.340;2024-02-26T08:03:54;99097.38;;;11.97;72.76
27729;BME280;15126;42.186;24.340;2024-02-26T08:06:21;99098.44;;;12.21;71.06
27729;BME280;15126;42.186;24.340;2024-02-26T08:08:46;99106.13;;;12.36;70.35
27729;BME280;15126;42.186;24.340;2024-02-26T08:11:14;99097.97;;;12.15;70.52
27729;BME280;15126;42.186;24.340;2024-02-26T08:13:40;99098.09;;;11.99;70.65
27729;BME280;15126;42.186;24.340;2024-02-26T08:16:06;99101.75;;;12.24;70.91
27729;BME280;15126;42.186;24.340;2024-02-26T08:18:31;99097.03;;;12.30;71.03
27729;BME280;15126;42.186;24.340;2024-02-26T08:20:57;99103.31;;;12.53;70.13
27729;BME280;15126;42.186;24.340;2024-02-26T08:23:22;99107.41;;;12.43;69.55
27729;BME280;15126;42.186;24.340;2024-02-26T08:25:49;99105.16;;;12.51;69.29
27729;BME280;15126;42.186;24.340;2024-02-26T08:28:14;99099.28;;;12.49;69.43
27729;BME280;15126;42.186;24.340;2024-02-26T08:30:43;99104.38;;;12.36;71.40
27729;BME280;15126;42.186;24.340;2024-02-26T08:33:09;99094.56;;;12.56;69.58
27729;BME280;15126;42.186;24.340;2024-02-26T08:35:35;99091.81;;;12.84;68.93
27729;BME280;15126;42.186;24.340;2024-02-26T08:38:01;99087.16;;;12.64;69.06
27729;BME280;15126;42.186;24.340;2024-02-26T08:40:28;99094.13;;;12.89;68.41
27729;BME280;15126;42.186;24.340;2024-02-26T08:42:53;99097.00;;;12.84;68.41
27729;BME280;15126;42.186;24.340;2024-02-26T08:45:19;99097.69;;;12.74;69.02
27729;BME280;15126;42.186;24.340;2024-02-26T08:47:47;99097.75;;;12.99;69.27
27729;BME280;15126;42.186;24.340;2024-02-26T08:50:13;99092.06;;;12.94;68.63
27729;BME280;15126;42.186;24.340;2024-02-26T08:52:39;99088.34;;;12.98;68.92
27729;BME280;15126;42.186;24.340;2024-02-26T08:55:07;99101.50;;;13.08;68.76
27729;BME280;15126;42.186;24.340;2024-02-26T08:57:34;99090.50;;;12.79;69.12
27729;BME280;15126;42.186;24.340;2024-02-26T09:00:00;99088.06;;;13.03;68.11
27729;BME280;15126;42.186;24.340;2024-02-26T09:02:26;99084.16;;;13.23;68.84
27729;BME280;15126;42.186;24.340;2024-02-26T09:04:52;99084.19;;;13.49;67.19
27729;BME280;15126;42.186;24.340;2024-02-26T09:07:21;99084.38;;;13.46;66.23
27729;BME280;15126;42.186;24.340;2024-02-26T09:09:47;99064.22;;;13.63;66.52
27729;BME280;15126;42.186;24.340;2024-02-26T09:12:12;99069.69;;;13.72;66.71
27729;BME280;15126;42.186;24.340;2024-02-26T09:14:38;99072.63;;;14.04;65.95
27729;BME280;15126;42.186;24.340;2024-02-26T09:17:06;99074.94;;;14.20;64.25
27729;BME280;15126;42.186;24.340;2024-02-26T09:19:32;99073.06;;;13.85;64.97
27729;BME280;15126;42.186;24.340;2024-02-26T09:21:58;99068.53;;;13.63;67.47
27729;BME280;15126;42.186;24.340;2024-02-26T09:24:24;99063.91;;;14.05;65.82
27729;BME280;15126;42.186;24.340;2024-02-26T09:26:52;99070.22;;;14.38;64.74
27729;BME280;15126;42.186;24.340;2024-02-26T09:29:18;99064.53;;;14.33;63.94
27729;BME280;15126;42.186;24.340;2024-02-26T09:31:43;99058.38;;;14.46;62.78
27729;BME280;15126;42.186;24.340;2024-02-26T09:34:12;99057.44;;;14.72;63.14
27729;BME280;15126;42.186;24.340;2024-02-26T09:36:38;99056.06;;;14.55;63.29
27729;BME280;15126;42.186;24.340;2024-02-26T09:39:03;99053.16;;;14.59;63.15
27729;BME280;15126;42.186;24.340;2024-02-26T09:41:30;99056.25;;;14.52;62.41
27729;BME280;15126;42.186;24.340;2024-02-26T09:43:59;99060.63;;;14.27;63.65
27729;BME280;15126;42.186;24.340;2024-02-26T09:46:28;99056.81;;;14.20;63.91
27729;BME280;15126;42.186;24.340;2024-02-26T09:48:53;99055.59;;;14.37;62.67
27729;BME280;15126;42.186;24.340;2024-02-26T09:51:22;99054.69;;;14.62;63.27
27729;BME280;15126;42.186;24.340;2024-02-26T09:53:52;99039.69;;;14.78;62.17
27729;BME280;15126;42.186;24.340;2024-02-26T09:56:18;99040.66;;;14.89;61.19
27729;BME280;15126;42.186;24.340;2024-02-26T09:58:44;99037.88;;;15.03;59.42
27729;BME280;15126;42.186;24.340;2024-02-26T10:01:16;99029.44;;;14.77;61.00
27729;BME280;15126;42.186;24.340;2024-02-26T10:03:43;99036.75;;;14.94;61.27
27729;BME280;15126;42.186;24.340;2024-02-26T10:06:10;99035.84;;;15.06;59.42
27729;BME280;15126;42.186;24.340;2024-02-26T10:08:36;99034.56;;;15.12;60.40
27729;BME280;15126;42.186;24.340;2024-02-26T10:11:07;99023.13;;;15.26;60.30
27729;BME280;15126;42.186;24.340;2024-02-26T10:13:35;99016.78;;;15.30;60.24
27729;BME280;15126;42.186;24.340;2024-02-26T10:16:05;99019.88;;;15.24;58.52
27729;BME280;15126;42.186;24.340;2024-02-26T10:18:52;99007.47;;;15.27;59.37
27729;BME280;15126;42.186;24.340;2024-02-26T10:21:29;99004.31;;;15.35;59.05
27729;BME280;15126;42.186;24.340;2024-02-26T10:23:54;98999.72;;;15.50;57.35
27729;BME280;15126;42.186;24.340;2024-02-26T10:26:20;98998.19;;;15.47;58.32
27729;BME280;15126;42.186;24.340;2024-02-26T10:28:46;98986.50;;;15.64;59.77
27729;BME280;15126;42.186;24.340;2024-02-26T10:31:13;98988.84;;;15.67;58.04
27729;BME280;15126;42.186;24.340;2024-02-26T10:33:40;98996.84;;;15.87;58.27
27729;BME280;15126;42.186;24.340;2024-02-26T10:36:07;99003.28;;;16.04;57.46
27729;BME280;15126;42.186;24.340;2024-02-26T10:38:34;98995.28;;;15.96;55.62
27729;BME280;15126;42.186;24.340;2024-02-26T10:41:02;98995.56;;;15.81;57.12
27729;BME280;15126;42.186;24.340;2024-02-26T10:43:28;98982.31;;;15.96;55.53
27729;BME280;15126;42.186;24.340;2024-02-26T10:45:57;98977.53;;;15.80;55.16
27729;BME280;15126;42.186;24.340;2024-02-26T10:48:23;98986.25;;;15.56;57.40
27729;BME280;15126;42.186;24.340;2024-02-26T10:50:49;98971.75;;;15.65;57.62
27729;BME280;15126;42.186;24.340;2024-02-26T10:53:17;98969.69;;;15.91;56.66
27729;BME280;15126;42.186;24.340;2024-02-26T10:56:05;98970.09;;;15.64;56.26
27729;BME280;15126;42.186;24.340;2024-02-26T10:58:32;98960.81;;;15.73;55.02
27729;BME280;15126;42.186;24.340;2024-02-26T11:00:58;98963.97;;;15.65;55.71
27729;BME280;15126;42.186;24.340;2024-02-26T11:03:25;98958.53;;;15.79;57.50
27729;BME280;15126;42.186;24.340;2024-02-26T11:05:51;98957.72;;;15.56;57.21
27729;BME280;15126;42.186;24.340;2024-02-26T11:08:20;98963.59;;;15.92;55.24
27729;BME280;15126;42.186;24.340;2024-02-26T11:10:53;98950.88;;;16.10;55.79
27729;BME280;15126;42.186;24.340;2024-02-26T11:13:19;98949.56;;;16.16;54.43
27729;BME280;15126;42.186;24.340;2024-02-26T11:15:48;98942.47;;;16.18;55.66
27729;BME280;15126;42.186;24.340;2024-02-26T11:18:15;98947.63;;;16.29;54.39
27729;BME280;15126;42.186;24.340;2024-02-26T11:20:42;98939.94;;;16.27;54.51
27729;BME280;15126;42.186;24.340;2024-02-26T11:23:08;98936.72;;;16.14;54.71
27729;BME280;15126;42.186;24.340;2024-02-26T11:25:37;98929.91;;;16.02;54.12
27729;BME280;15126;42.186;24.340;2024-02-26T11:28:07;98936.47;;;16.17;53.76
27729;BME280;15126;42.186;24.340;2024-02-26T11:30:36;98929.91;;;16.34;52.54
27729;BME280;15126;42.186;24.340;2024-02-26T11:33:06;98931.91;;;16.10;52.96
27729;BME280;15126;42.186;24.340;2024-02-26T11:35:34;98918.03;;;16.20;53.52
27729;BME280;15126;42.186;24.340;2024-02-26T11:38:01;98925.72;;;16.43;52.51
27729;BME280;15126;42.186;24.340;2024-02-26T11:40:27;98925.41;;;16.36;51.96
27729;BME280;15126;42.186;24.340;2024-02-26T11:42:53;98923.44;;;16.49;52.22
27729;BME280;15126;42.186;24.340;2024-02-26T11:48:12;98911.81;;;16.75;52.27
27729;BME280;15126;42.186;24.340;2024-02-26T11:50:42;98912.97;;;16.82;51.45
27729;BME280;15126;42.186;24.340;2024-02-26T11:53:22;98911.25;;;16.71;52.26
27729;BME280;15126;42.186;24.340;2024-02-26T11:58:56;98913.56;;;16.95;51.45
27729;BME280;15126;42.186;24.340;2024-02-26T12:01:47;98912.41;;;17.09;51.20
27729;BME280;15126;42.186;24.340;2024-02-26T12:04:18;98908.25;;;16.97;50.25
27729;BME280;15126;42.186;24.340;2024-02-26T12:06:51;98898.84;;;17.05;50.77
27729;BME280;15126;42.186;24.340;2024-02-26T12:09:36;98898.59;;;17.18;50.78
27729;BME280;15126;42.186;24.340;2024-02-26T12:12:03;98900.03;;;17.01;48.88
27729;BME280;15126;42.186;24.340;2024-02-26T12:14:29;98884.09;;;17.06;50.61
27729;BME280;15126;42.186;24.340;2024-02-26T12:17:00;98886.16;;;17.22;47.99
27729;BME280;15126;42.186;24.340;2024-02-26T12:19:27;98885.91;;;17.35;49.10
27729;BME280;15126;42.186;24.340;2024-02-26T12:21:53;98891.16;;;17.44;48.35
27729;BME280;15126;42.186;24.340;2024-02-26T12:24:23;98889.09;;;17.38;48.65
27729;BME280;15126;42.186;24.340;2024-02-26T12:26:48;98887.59;;;17.36;50.18
27729;BME280;15126;42.186;24.340;2024-02-26T12:29:14;98884.97;;;17.45;48.65
27729;BME280;15126;42.186;24.340;2024-02-26T12:31:42;98890.31;;;17.44;48.58
27729;BME280;15126;42.186;24.340;2024-02-26T12:34:08;98889.19;;;17.27;47.16
27729;BME280;15126;42.186;24.340;2024-02-26T12:36:35;98885.88;;;17.15;47.84
27729;BME280;15126;42.186;24.340;2024-02-26T12:39:04;98883.81;;;17.09;47.12
27729;BME280;15126;42.186;24.340;2024-02-26T12:41:33;98879.41;;;17.00;47.56
27729;BME280;15126;42.186;24.340;2024-02-26T12:43:59;98878.25;;;16.83;48.57
27729;BME280;15126;42.186;24.340;2024-02-26T12:46:25;98870.38;;;17.04;47.14
27729;BME280;15126;42.186;24.340;2024-02-26T12:48:51;98865.72;;;17.07;48.85
27729;BME280;15126;42.186;24.340;2024-02-26T12:51:17;98874.66;;;17.15;47.46
27729;BME280;15126;42.186;24.340;2024-02-26T12:53:45;98874.75;;;17.03;46.75
27729;BME280;15126;42.186;24.340;2024-02-26T12:56:11;98868.03;;;17.01;47.58